Time;durP1;ratioP1;P1;durP2;ratioP2;P2;SDS_P1;SDS_P2;PMS_P1;PMS_P2;Temp;Humidity;BMP_temperature;BMP_pressure;BME280_temperature;BME280_humidity;BME280_pressure;Samples;Min_cycle;Max_cycle;Signal;HPM_P1;HPM_P2
2022/01/05 00:01:24;;;;;;;0.10;0.10;;;6.20;99.90;;;;;;5058643;28;20066;-68
2022/01/05 00:03:49;;;;;;;0.10;0.10;;;6.30;99.90;;;;;;5065956;28;20040;-68
2022/01/05 00:06:15;;;;;;;0.10;0.10;;;6.20;99.90;;;;;;5059660;28;20025;-68
2022/01/05 00:08:41;;;;;;;0.10;0.10;;;6.20;99.90;;;;;;5057571;28;20139;-69
2022/01/05 00:11:07;;;;;;;0.08;0.08;;;6.20;99.90;;;;;;5059427;28;20038;-67
2022/01/05 00:13:33;;;;;;;0.10;0.10;;;6.30;99.90;;;;;;5053012;28;20483;-70
2022/01/05 00:15:59;;;;;;;0.10;0.10;;;6.20;99.90;;;;;;5055833;28;20043;-70
2022/01/05 00:18:24;;;;;;;0.10;0.10;;;6.20;99.90;;;;;;5059387;28;20025;-69
2022/01/05 00:20:50;;;;;;;0.00;0.00;;;6.20;99.90;;;;;;5055729;28;20049;-69
2022/01/05 00:23:16;;;;;;;0.10;0.10;;;6.20;99.90;;;;;;5045811;28;20479;-69
2022/01/05 00:25:42;;;;;;;0.00;0.00;;;6.20;99.90;;;;;;5058646;28;20081;-69
2022/01/05 00:28:07;;;;;;;0.10;0.10;;;6.10;99.90;;;;;;5060129;28;20111;-69
2022/01/05 00:30:33;;;;;;;0.10;0.10;;;6.10;99.90;;;;;;5054631;28;20538;-69
2022/01/05 00:32:59;;;;;;;0.10;0.10;;;6.50;99.90;;;;;;5062850;28;20031;-69
2022/01/05 00:35:24;;;;;;;0.10;0.10;;;6.00;99.90;;;;;;5056602;28;20020;-69
2022/01/05 00:37:50;;;;;;;0.10;0.10;;;6.10;99.90;;;;;;5065035;28;20020;-70
2022/01/05 00:40:16;;;;;;;0.10;0.10;;;5.90;99.90;;;;;;5061347;28;20131;-70
2022/01/05 00:42:41;;;;;;;0.10;0.10;;;5.90;99.90;;;;;;5061451;28;20520;-69
2022/01/05 00:45:07;;;;;;;0.10;0.10;;;5.90;99.90;;;;;;5057722;28;20043;-69
2022/01/05 00:47:33;;;;;;;0.10;0.10;;;6.00;99.90;;;;;;5059461;28;20052;-69
2022/01/05 00:49:59;;;;;;;0.10;0.10;;;5.90;99.90;;;;;;5058936;28;20040;-69
2022/01/05 00:52:24;;;;;;;0.10;0.10;;;5.90;99.90;;;;;;5057138;28;20033;-70
2022/01/05 00:54:51;;;;;;;0.10;0.10;;;5.90;99.90;;;;;;5052799;28;20025;-71
2022/01/05 00:57:17;;;;;;;0.10;0.10;;;5.90;99.90;;;;;;5058523;28;20039;-69
2022/01/05 00:59:42;;;;;;;0.03;0.03;;;5.80;99.90;;;;;;5060668;28;20103;-69
2022/01/05 01:02:08;;;;;;;0.10;0.10;;;5.80;99.90;;;;;;5049769;28;20482;-69
2022/01/05 01:04:34;;;;;;;0.10;0.10;;;5.80;99.90;;;;;;5057775;28;20029;-71
2022/01/05 01:06:59;;;;;;;0.10;0.10;;;5.90;99.90;;;;;;5037217;22;20110;-74
2022/01/05 01:09:25;;;;;;;0.10;0.10;;;5.90;99.90;;;;;;5018592;28;20052;-74
2022/01/05 01:11:51;;;;;;;0.10;0.10;;;5.90;99.90;;;;;;5022636;28;20033;-73
2022/01/05 01:14:16;;;;;;;0.10;0.10;;;5.30;99.90;;;;;;5023165;28;20026;-74
2022/01/05 01:16:42;;;;;;;0.00;0.00;;;6.00;99.90;;;;;;5018651;28;20489;-75
2022/01/05 01:19:08;;;;;;;0.10;0.10;;;5.90;99.90;;;;;;5021707;28;20125;-73
2022/01/05 01:21:33;;;;;;;0.10;0.10;;;6.00;99.90;;;;;;5020484;28;20052;-75
2022/01/05 01:23:59;;;;;;;0.10;0.10;;;5.90;99.90;;;;;;5022410;28;20036;-73
2022/01/05 01:26:27;;;;;;;0.10;0.10;;;6.00;99.90;;;;;;5022371;28;20060;-75
2022/01/05 01:28:53;;;;;;;0.10;0.10;;;6.00;99.90;;;;;;5024218;28;20021;-74
2022/01/05 01:31:19;;;;;;;0.10;0.10;;;6.00;99.90;;;;;;5008521;28;20580;-74
2022/01/05 01:33:46;;;;;;;0.10;0.10;;;6.00;99.90;;;;;;5021838;28;20095;-74
2022/01/05 01:36:12;;;;;;;0.10;0.10;;;6.00;99.90;;;;;;5023322;28;20029;-75
2022/01/05 01:38:38;;;;;;;0.10;0.10;;;6.00;99.90;;;;;;5023725;28;20033;-74
2022/01/05 01:41:04;;;;;;;0.10;0.10;;;6.00;99.90;;;;;;5023250;28;20583;-73
2022/01/05 01:43:30;;;;;;;0.03;0.03;;;6.00;99.90;;;;;;5021081;28;20026;-73
2022/01/05 01:45:56;;;;;;;0.10;0.10;;;6.10;99.90;;;;;;5023331;28;20462;-73
2022/01/05 01:48:21;;;;;;;0.10;0.10;;;6.10;99.90;;;;;;5023848;28;20053;-74
2022/01/05 01:50:47;;;;;;;0.10;0.10;;;6.10;99.90;;;;;;5026283;28;20061;-75
2022/01/05 01:53:13;;;;;;;0.10;0.10;;;6.10;99.90;;;;;;5022871;28;20029;-73
2022/01/05 01:55:39;;;;;;;0.10;0.10;;;6.10;99.90;;;;;;5021792;28;20018;-73
2022/01/05 01:58:06;;;;;;;0.10;0.10;;;6.10;99.90;;;;;;5025736;28;20029;-73
2022/01/05 02:00:32;;;;;;;0.10;0.10;;;6.10;99.90;;;;;;5025063;28;20021;-74
2022/01/05 02:02:58;;;;;;;0.05;0.05;;;6.10;99.90;;;;;;5027134;28;20025;-74
2022/01/05 02:05:24;;;;;;;0.10;0.10;;;6.10;99.90;;;;;;5027180;28;20087;-73
2022/01/05 02:07:50;;;;;;;0.10;0.10;;;6.10;99.90;;;;;;5036419;28;20403;-72
2022/01/05 02:10:17;;;;;;;0.10;0.10;;;6.10;99.90;;;;;;5018591;28;20053;-73
2022/01/05 02:12:43;;;;;;;0.10;0.10;;;6.20;99.90;;;;;;5011167;28;20025;-73
2022/01/05 02:15:10;;;;;;;0.10;0.10;;;6.10;99.90;;;;;;5028833;28;20080;-72
2022/01/05 02:17:50;;;;;;;0.10;0.10;;;6.10;99.90;;;;;;5029538;28;20104;-72
2022/01/05 02:20:24;;;;;;;0.15;0.15;;;6.10;99.90;;;;;;5028514;28;20095;-72
2022/01/05 02:22:51;;;;;;;0.10;0.10;;;6.10;99.90;;;;;;5024819;28;20125;-72
2022/01/05 02:25:17;;;;;;;0.10;0.10;;;6.20;99.90;;;;;;5028850;28;20076;-72
2022/01/05 02:27:44;;;;;;;0.10;0.10;;;6.20;99.90;;;;;;5029175;28;20052;-74
2022/01/05 02:30:12;;;;;;;0.10;0.10;;;6.20;99.90;;;;;;5029171;28;20033;-73
2022/01/05 02:32:38;;;;;;;0.10;0.10;;;5.90;99.90;;;;;;5027754;28;20026;-73
2022/01/05 02:35:05;;;;;;;0.10;0.10;;;6.20;99.90;;;;;;5028895;28;20021;-71
2022/01/05 02:37:30;;;;;;;0.10;0.10;;;6.20;99.90;;;;;;5028994;28;20136;-73
2022/01/05 02:39:56;;;;;;;0.10;0.10;;;6.20;99.90;;;;;;5028544;28;20104;-73
2022/01/05 02:42:27;;;;;;;0.10;0.10;;;6.20;99.90;;;;;;5029148;28;20060;-72
2022/01/05 02:44:53;;;;;;;0.00;0.00;;;6.20;99.90;;;;;;5028904;28;20022;-73
2022/01/05 02:47:19;;;;;;;0.00;0.00;;;6.20;99.90;;;;;;5028221;28;20031;-72
2022/01/05 02:49:44;;;;;;;0.22;0.22;;;6.30;99.90;;;;;;5028967;28;20033;-72
2022/01/05 02:52:10;;;;;;;0.10;0.10;;;6.30;99.90;;;;;;5028960;28;20060;-72
2022/01/05 02:54:36;;;;;;;0.10;0.10;;;6.30;99.90;;;;;;5028616;28;20479;-73
2022/01/05 02:57:01;;;;;;;0.08;0.08;;;6.20;99.90;;;;;;5028382;28;20049;-72
2022/01/05 02:59:28;;;;;;;0.10;0.10;;;6.20;99.90;;;;;;5028694;28;20434;-71
2022/01/05 03:01:54;;;;;;;0.10;0.10;;;6.20;99.90;;;;;;5021813;28;20134;-73
2022/01/05 03:04:20;;;;;;;0.10;0.10;;;6.20;99.90;;;;;;5023821;28;20129;-73
2022/01/05 03:06:45;;;;;;;0.10;0.10;;;6.20;99.90;;;;;;5027749;28;20668;-72
2022/01/05 03:09:11;;;;;;;0.10;0.10;;;6.10;99.90;;;;;;5028860;28;20045;-71
2022/01/05 03:11:36;;;;;;;0.10;0.10;;;6.10;99.90;;;;;;5028488;28;20140;-72
2022/01/05 03:14:02;;;;;;;0.30;0.30;;;6.10;99.90;;;;;;5027560;28;20028;-71
2022/01/05 03:16:28;;;;;;;0.10;0.10;;;6.10;99.90;;;;;;5031233;28;20076;-72
2022/01/05 03:18:54;;;;;;;0.10;0.10;;;6.10;99.90;;;;;;5031699;28;20021;-72
2022/01/05 03:21:20;;;;;;;0.10;0.10;;;6.00;99.90;;;;;;5032672;28;20029;-72
2022/01/05 03:23:46;;;;;;;0.10;0.10;;;6.00;99.90;;;;;;5032414;28;20038;-73
2022/01/05 03:26:13;;;;;;;0.10;0.10;;;6.00;99.90;;;;;;5031816;28;20049;-73
2022/01/05 03:28:39;;;;;;;0.00;0.00;;;6.00;99.90;;;;;;5032134;28;20439;-73
2022/01/05 03:31:05;;;;;;;0.10;0.10;;;6.00;99.90;;;;;;5032509;28;20031;-72
2022/01/05 03:33:31;;;;;;;0.10;0.10;;;6.10;99.90;;;;;;5031861;28;20372;-74
2022/01/05 03:35:57;;;;;;;0.00;0.00;;;6.00;99.90;;;;;;5031093;28;20037;-74
2022/01/05 03:38:24;;;;;;;0.10;0.10;;;6.10;99.90;;;;;;5031742;28;20403;-72
2022/01/05 03:40:49;;;;;;;0.10;0.10;;;6.00;99.90;;;;;;5032039;28;20037;-73
2022/01/05 03:43:16;;;;;;;0.00;0.00;;;6.10;99.90;;;;;;5032098;28;20047;-72
2022/01/05 03:45:42;;;;;;;0.10;0.10;;;6.00;99.90;;;;;;5031093;28;20034;-72
2022/01/05 03:48:11;;;;;;;0.10;0.10;;;6.10;99.90;;;;;;5030708;28;20450;-71
2022/01/05 03:50:37;;;;;;;0.10;0.10;;;6.10;99.90;;;;;;5031433;28;20454;-71
2022/01/05 03:53:04;;;;;;;0.10;0.10;;;6.10;99.90;;;;;;5031030;28;20057;-75
2022/01/05 03:55:31;;;;;;;0.10;0.10;;;6.10;99.90;;;;;;5010131;28;20048;-72
2022/01/05 03:57:57;;;;;;;0.10;0.10;;;6.00;99.90;;;;;;5031639;28;20032;-72
2022/01/05 04:00:24;;;;;;;0.10;0.10;;;6.00;99.90;;;;;;5026250;28;20113;-73
2022/01/05 04:02:50;;;;;;;0.10;0.10;;;6.00;99.90;;;;;;5032032;28;20139;-71
2022/01/05 04:05:16;;;;;;;0.10;0.10;;;6.00;99.90;;;;;;5030959;28;20483;-71
2022/01/05 04:07:42;;;;;;;0.10;0.10;;;6.00;99.90;;;;;;5031964;28;20093;-72
2022/01/05 04:10:08;;;;;;;0.10;0.10;;;6.00;99.90;;;;;;5030512;28;20126;-72
2022/01/05 04:12:34;;;;;;;0.10;0.10;;;5.90;99.90;;;;;;5020293;28;20475;-73
2022/01/05 04:14:59;;;;;;;0.10;0.10;;;5.90;99.90;;;;;;5013610;28;20018;-74
2022/01/05 04:17:25;;;;;;;0.00;0.00;;;5.90;99.90;;;;;;5032077;28;20706;-71
2022/01/05 04:19:51;;;;;;;0.10;0.10;;;6.00;99.90;;;;;;5024966;28;20427;-72
2022/01/05 04:22:17;;;;;;;0.10;0.10;;;5.90;99.90;;;;;;5019964;28;20030;-72
2022/01/05 04:24:42;;;;;;;0.10;0.10;;;6.00;99.90;;;;;;5000434;28;20382;-74
2022/01/05 04:27:08;;;;;;;0.10;0.10;;;6.00;99.90;;;;;;5031813;28;20033;-72
2022/01/05 04:29:33;;;;;;;0.10;0.10;;;6.00;99.90;;;;;;5031747;28;20025;-72
2022/01/05 04:32:00;;;;;;;0.10;0.10;;;6.00;99.90;;;;;;5031838;28;20467;-73
2022/01/05 04:34:27;;;;;;;0.10;0.10;;;6.00;99.90;;;;;;5026103;28;20495;-71
2022/01/05 04:36:52;;;;;;;0.10;0.10;;;6.00;99.90;;;;;;5011376;28;20029;-72
2022/01/05 04:39:18;;;;;;;0.10;0.10;;;6.00;99.90;;;;;;5011801;28;20083;-72
2022/01/05 04:41:44;;;;;;;0.10;0.10;;;5.90;99.90;;;;;;5012120;28;20380;-73
2022/01/05 04:44:09;;;;;;;0.10;0.10;;;5.90;99.90;;;;;;5024660;28;20148;-72
2022/01/05 04:46:35;;;;;;;0.10;0.10;;;5.90;99.90;;;;;;5030884;28;20340;-72
2022/01/05 04:49:00;;;;;;;0.10;0.10;;;5.90;99.90;;;;;;5031224;28;20029;-71
2022/01/05 04:51:26;;;;;;;0.00;0.00;;;5.80;99.90;;;;;;5029642;28;20029;-72
2022/01/05 04:53:52;;;;;;;0.10;0.10;;;5.80;99.90;;;;;;5006008;28;20455;-71
2022/01/05 04:56:18;;;;;;;0.08;0.08;;;5.70;99.90;;;;;;5029630;28;20221;-72
2022/01/05 04:58:44;;;;;;;0.10;0.10;;;5.70;99.90;;;;;;5030011;28;20076;-72
2022/01/05 05:01:09;;;;;;;0.10;0.10;;;5.60;99.90;;;;;;5031176;28;20026;-72
2022/01/05 05:03:35;;;;;;;0.10;0.10;;;5.50;99.90;;;;;;5012952;28;20032;-71
2022/01/05 05:06:00;;;;;;;0.10;0.10;;;5.60;99.90;;;;;;5030641;28;20116;-72
2022/01/05 05:08:26;;;;;;;0.10;0.10;;;5.50;99.90;;;;;;5029585;28;20562;-73
2022/01/05 05:10:52;;;;;;;0.10;0.10;;;5.50;99.90;;;;;;5015752;28;20148;-72
2022/01/05 05:13:17;;;;;;;0.10;0.10;;;5.50;99.90;;;;;;5011081;28;20066;-71
2022/01/05 05:15:43;;;;;;;0.10;0.10;;;5.60;99.90;;;;;;5017153;28;20635;-71
2022/01/05 05:18:09;;;;;;;0.10;0.10;;;5.60;99.90;;;;;;5030524;28;20535;-72
2022/01/05 05:20:34;;;;;;;0.10;0.10;;;5.60;99.90;;;;;;5030004;28;20022;-72
2022/01/05 05:23:01;;;;;;;0.10;0.10;;;5.60;99.90;;;;;;5029139;28;20135;-71
2022/01/05 05:25:26;;;;;;;0.10;0.10;;;5.70;99.90;;;;;;5029657;28;20030;-71
2022/01/05 05:27:52;;;;;;;0.10;0.10;;;5.50;99.90;;;;;;5030368;28;20029;-72
2022/01/05 05:30:18;;;;;;;0.10;0.10;;;4.80;99.90;;;;;;5030213;28;20156;-71
2022/01/05 05:32:44;;;;;;;0.03;0.03;;;4.40;99.90;;;;;;5029318;28;20037;-72
2022/01/05 05:35:10;;;;;;;0.10;0.10;;;4.10;99.90;;;;;;5028540;28;20490;-71
2022/01/05 05:37:35;;;;;;;0.10;0.10;;;4.00;99.90;;;;;;5022299;28;20048;-71
2022/01/05 05:40:02;;;;;;;0.10;0.10;;;3.80;99.90;;;;;;5028981;28;20025;-72
2022/01/05 05:42:28;;;;;;;0.10;0.10;;;3.50;99.90;;;;;;5029753;28;20035;-72
2022/01/05 05:44:53;;;;;;;0.10;0.10;;;3.40;99.90;;;;;;5029664;28;20108;-71
2022/01/05 05:47:19;;;;;;;0.10;0.10;;;3.30;99.90;;;;;;5029930;28;20025;-72
2022/01/05 05:49:45;;;;;;;0.10;0.10;;;3.30;99.90;;;;;;5028892;28;20033;-73
2022/01/05 05:52:12;;;;;;;0.10;0.10;;;3.40;99.90;;;;;;5029452;28;20025;-71
2022/01/05 05:54:38;;;;;;;0.10;0.10;;;3.30;99.90;;;;;;5020806;28;20025;-72
2022/01/05 05:57:04;;;;;;;0.10;0.10;;;3.20;99.90;;;;;;5029138;28;20030;-72
2022/01/05 05:59:30;;;;;;;0.10;0.10;;;3.10;99.90;;;;;;5029110;28;20033;-72
2022/01/05 06:01:55;;;;;;;0.10;0.10;;;3.20;99.90;;;;;;5029890;28;20018;-72
2022/01/05 06:04:21;;;;;;;0.10;0.10;;;3.30;99.90;;;;;;5029600;28;20516;-72
2022/01/05 06:06:46;;;;;;;0.10;0.10;;;3.30;99.90;;;;;;5028535;28;20057;-72
2022/01/05 06:09:12;;;;;;;0.03;0.03;;;3.30;99.90;;;;;;5029564;28;20055;-71
2022/01/05 06:11:38;;;;;;;0.20;0.20;;;3.40;99.90;;;;;;5029542;28;20065;-72
2022/01/05 06:14:03;;;;;;;0.10;0.10;;;3.40;99.90;;;;;;5029182;28;20507;-70
2022/01/05 06:16:29;;;;;;;0.10;0.10;;;3.40;99.90;;;;;;5027921;28;20066;-72
2022/01/05 06:18:54;;;;;;;0.10;0.10;;;3.40;99.90;;;;;;5029125;28;20472;-71
2022/01/05 06:21:20;;;;;;;0.10;0.10;;;3.40;99.90;;;;;;5029030;28;20500;-71
2022/01/05 06:23:48;;;;;;;0.10;0.10;;;3.50;99.90;;;;;;5028262;28;20041;-72
2022/01/05 06:26:13;;;;;;;0.10;0.10;;;3.50;99.90;;;;;;5028945;28;20039;-73
2022/01/05 06:28:39;;;;;;;0.10;0.10;;;3.60;99.90;;;;;;5029304;28;20387;-71
2022/01/05 06:31:05;;;;;;;0.00;0.00;;;3.60;99.90;;;;;;5029015;28;20029;-72
2022/01/05 06:33:30;;;;;;;0.10;0.10;;;3.80;99.90;;;;;;5029334;28;20550;-73
2022/01/05 06:35:56;;;;;;;0.10;0.10;;;3.70;99.90;;;;;;5029176;28;20025;-72
2022/01/05 06:38:21;;;;;;;0.10;0.10;;;3.70;99.90;;;;;;5029254;28;20030;-72
2022/01/05 06:40:48;;;;;;;0.10;0.10;;;3.70;99.90;;;;;;5028415;28;20104;-73
2022/01/05 06:43:14;;;;;;;0.10;0.10;;;3.80;99.90;;;;;;5029204;28;20345;-72
2022/01/05 06:45:40;;;;;;;0.10;0.10;;;3.80;99.90;;;;;;5028516;28;20032;-72
2022/01/05 06:48:05;;;;;;;0.10;0.10;;;3.70;99.90;;;;;;5024512;28;20390;-72
2022/01/05 06:50:31;;;;;;;0.10;0.10;;;3.70;99.90;;;;;;5019425;28;20057;-72
2022/01/05 06:52:57;;;;;;;0.10;0.10;;;3.70;99.90;;;;;;5027259;28;20034;-72
2022/01/05 06:55:23;;;;;;;0.10;0.10;;;3.70;99.90;;;;;;5024259;28;20458;-71
2022/01/05 06:57:51;;;;;;;0.10;0.10;;;3.70;99.90;;;;;;5005948;28;20032;-71
2022/01/05 07:00:17;;;;;;;0.10;0.10;;;3.60;99.90;;;;;;5023245;28;20502;-72
2022/01/05 07:02:43;;;;;;;0.10;0.10;;;3.60;99.90;;;;;;5029072;28;20036;-72
2022/01/05 07:05:10;;;;;;;0.10;0.10;;;3.60;99.90;;;;;;5017835;28;20097;-71
2022/01/05 07:07:36;;;;;;;0.10;0.10;;;3.70;99.90;;;;;;5027971;28;20117;-72
2022/01/05 07:10:04;;;;;;;0.10;0.10;;;3.50;99.90;;;;;;5029096;28;20026;-71
2022/01/05 07:12:29;;;;;;;0.10;0.10;;;3.50;99.90;;;;;;5020936;28;20108;-72
2022/01/05 07:14:55;;;;;;;0.00;0.00;;;3.50;99.90;;;;;;5028076;28;20129;-72
2022/01/05 07:17:21;;;;;;;0.10;0.10;;;3.60;99.90;;;;;;5028863;28;20436;-72
2022/01/05 07:19:46;;;;;;;0.10;0.10;;;3.60;99.90;;;;;;5016606;28;20026;-74
2022/01/05 07:22:12;;;;;;;0.10;0.10;;;3.60;99.90;;;;;;5027745;28;20094;-73
2022/01/05 07:24:38;;;;;;;0.10;0.10;;;3.60;99.90;;;;;;5027633;28;20038;-73
2022/01/05 07:27:03;;;;;;;0.10;0.10;;;3.50;99.90;;;;;;5019550;28;20431;-73
2022/01/05 07:29:29;;;;;;;0.10;0.10;;;3.40;99.90;;;;;;5027633;28;20032;-74
2022/01/05 07:31:54;;;;;;;0.10;0.10;;;3.40;99.90;;;;;;5016405;28;20412;-74
2022/01/05 07:36:49;;;;;;;0.08;0.08;;;3.60;99.90;;;;;;5058587;28;20134;-71
2022/01/05 07:39:15;;;;;;;0.00;0.00;;;3.60;99.90;;;;;;5073372;28;20024;-71
2022/01/05 07:41:40;;;;;;;0.10;0.10;;;3.50;99.90;;;;;;5070621;28;20074;-70
2022/01/05 07:44:07;;;;;;;0.10;0.10;;;3.50;99.90;;;;;;5066592;28;20293;-71
2022/01/05 07:46:34;;;;;;;0.10;0.10;;;3.50;99.90;;;;;;5076294;28;20107;-70
2022/01/05 07:49:02;;;;;;;0.10;0.10;;;3.40;99.90;;;;;;5074427;28;20040;-71
2022/01/05 07:51:29;;;;;;;0.10;0.10;;;3.40;99.90;;;;;;5066479;28;20017;-71
2022/01/05 07:53:54;;;;;;;0.10;0.10;;;3.30;99.90;;;;;;5067849;28;20036;-71
2022/01/05 07:56:20;;;;;;;0.10;0.10;;;3.40;99.90;;;;;;5073485;28;20591;-71
2022/01/05 07:58:47;;;;;;;0.10;0.10;;;3.30;99.90;;;;;;5078451;28;20020;-73
2022/01/05 08:01:16;;;;;;;0.10;0.10;;;3.30;99.90;;;;;;5068812;28;20024;-72
2022/01/05 08:03:41;;;;;;;0.10;0.10;;;3.20;99.90;;;;;;5081624;28;20023;-70
2022/01/05 08:06:07;;;;;;;0.10;0.10;;;3.20;99.90;;;;;;5069613;28;20032;-71
2022/01/05 08:08:33;;;;;;;0.10;0.10;;;3.30;99.90;;;;;;5077588;28;20020;-71
2022/01/05 08:10:58;;;;;;;0.25;0.25;;;3.20;99.90;;;;;;5078839;28;20027;-71
2022/01/05 08:13:24;;;;;;;0.10;0.10;;;3.20;99.90;;;;;;5075959;28;20028;-70
2022/01/05 08:15:53;;;;;;;0.10;0.10;;;3.20;99.90;;;;;;5082788;28;20422;-72
2022/01/05 08:18:19;;;;;;;0.10;0.10;;;3.30;99.90;;;;;;5073945;28;20508;-72
2022/01/05 08:20:46;;;;;;;0.10;0.10;;;3.30;99.90;;;;;;5085408;28;20070;-71
2022/01/05 08:23:20;;;;;;;0.10;0.10;;;3.30;99.90;;;;;;5083001;28;20043;-71
2022/01/05 08:25:46;;;;;;;0.10;0.10;;;3.30;99.90;;;;;;5077377;28;20028;-71
2022/01/05 08:28:12;;;;;;;0.10;0.10;;;3.20;99.90;;;;;;5081936;28;20020;-70
2022/01/05 08:30:39;;;;;;;0.10;0.10;;;3.20;99.90;;;;;;5074957;28;20148;-70
2022/01/05 08:33:06;;;;;;;0.10;0.10;;;3.10;99.90;;;;;;5078201;28;20043;-71
2022/01/05 08:35:32;;;;;;;0.10;0.10;;;3.10;99.90;;;;;;5068922;28;20086;-70
2022/01/05 08:37:59;;;;;;;0.10;0.10;;;3.10;99.90;;;;;;5068963;28;20033;-70
2022/01/05 08:40:26;;;;;;;0.10;0.10;;;3.20;99.90;;;;;;5072402;28;20052;-71
2022/01/05 08:42:53;;;;;;;0.10;0.10;;;3.10;99.90;;;;;;5075967;28;20082;-71
2022/01/05 08:45:20;;;;;;;0.10;0.10;;;3.10;99.90;;;;;;5071053;28;20024;-70
2022/01/05 08:47:48;;;;;;;0.10;0.10;;;3.10;99.90;;;;;;5070219;28;20039;-70
2022/01/05 08:50:15;;;;;;;0.10;0.10;;;3.00;99.90;;;;;;5079311;28;20020;-70
2022/01/05 08:52:41;;;;;;;0.10;0.10;;;3.00;99.90;;;;;;5076988;28;20028;-70
2022/01/05 08:55:07;;;;;;;0.10;0.10;;;3.00;99.90;;;;;;5071414;28;20024;-70
2022/01/05 08:57:33;;;;;;;0.10;0.10;;;3.00;99.90;;;;;;5066977;28;20477;-71
2022/01/05 08:59:58;;;;;;;0.10;0.10;;;2.90;99.90;;;;;;5071380;28;20024;-71
2022/01/05 09:02:24;;;;;;;0.10;0.10;;;2.90;99.90;;;;;;5081363;28;20058;-70
2022/01/05 09:04:52;;;;;;;0.10;0.10;;;2.90;99.90;;;;;;5077778;28;20026;-70
2022/01/05 09:07:18;;;;;;;0.10;0.10;;;2.90;99.90;;;;;;5079225;28;20024;-71
2022/01/05 09:09:44;;;;;;;0.13;0.13;;;3.00;99.90;;;;;;5076894;28;20054;-71
2022/01/05 09:12:11;;;;;;;0.10;0.10;;;3.00;99.90;;;;;;5080223;28;20032;-71
2022/01/05 09:14:37;;;;;;;0.10;0.10;;;3.10;99.90;;;;;;5073375;28;20028;-71
2022/01/05 09:17:03;;;;;;;0.10;0.10;;;3.10;99.90;;;;;;5074569;28;20028;-71
2022/01/05 09:19:29;;;;;;;0.10;0.10;;;3.30;99.90;;;;;;5073591;28;20020;-72
2022/01/05 09:21:55;;;;;;;0.10;0.10;;;3.40;99.90;;;;;;5071801;28;20024;-71
2022/01/05 09:24:21;;;;;;;0.10;0.10;;;3.40;99.90;;;;;;5072607;28;20516;-71
2022/01/05 09:26:46;;;;;;;0.10;0.10;;;3.50;99.90;;;;;;5075597;28;20021;-71
2022/01/05 09:29:12;;;;;;;0.10;0.10;;;3.50;99.90;;;;;;5079462;28;20036;-72
2022/01/05 09:31:38;;;;;;;0.10;0.10;;;3.50;99.90;;;;;;5079365;28;20139;-71
2022/01/05 09:34:05;;;;;;;0.10;0.10;;;3.50;99.90;;;;;;5076681;28;20504;-71
2022/01/05 09:36:40;;;;;;;1.95;1.85;;;3.60;99.90;;;;;;5079691;28;20107;-71
2022/01/05 09:41:56;;;;;;;0.10;0.10;;;3.60;99.90;;;;;;5077763;28;20127;-71
2022/01/05 09:44:26;;;;;;;0.13;0.13;;;3.70;99.90;;;;;;5079100;28;20020;-71
2022/01/05 09:47:25;;;;;;;0.10;0.10;;;3.70;99.90;;;;;;5072964;28;20084;-71
2022/01/05 09:49:59;;;;;;;0.10;0.10;;;3.70;99.90;;;;;;5035385;28;20096;-71
2022/01/05 09:52:26;;;;;;;0.10;0.10;;;3.70;99.90;;;;;;5080150;28;20056;-71
2022/01/05 09:54:53;;;;;;;0.10;0.10;;;3.70;99.90;;;;;;5076647;28;20028;-70
2022/01/05 09:57:20;;;;;;;0.10;0.10;;;3.80;99.90;;;;;;5075390;28;20077;-70
2022/01/05 09:59:47;;;;;;;0.40;0.40;;;3.70;99.90;;;;;;5080055;28;20020;-71
2022/01/05 10:02:15;;;;;;;0.10;0.10;;;3.70;99.90;;;;;;5076467;28;20028;-71
2022/01/05 10:04:41;;;;;;;0.10;0.10;;;3.70;99.90;;;;;;5075417;28;20028;-71
2022/01/05 10:07:08;;;;;;;0.10;0.10;;;3.60;99.90;;;;;;5072085;28;20020;-70
2022/01/05 10:09:37;;;;;;;0.10;0.10;;;3.60;99.90;;;;;;5074791;28;20134;-71
2022/01/05 10:12:04;;;;;;;0.10;0.10;;;3.60;99.90;;;;;;5071796;28;20478;-71
2022/01/05 10:14:30;;;;;;;0.10;0.10;;;3.70;99.90;;;;;;5071985;28;20044;-71
2022/01/05 10:17:02;;;;;;;0.10;0.10;;;3.60;99.90;;;;;;5062648;28;20390;-71
2022/01/05 10:19:28;;;;;;;0.10;0.10;;;3.60;99.90;;;;;;5082070;28;20019;-71
2022/01/05 10:21:56;;;;;;;0.10;0.10;;;3.60;99.90;;;;;;5080611;28;20055;-70
2022/01/05 10:24:47;;;;;;;0.10;0.10;;;3.50;99.90;;;;;;5077627;28;20021;-71
2022/01/05 10:27:18;;;;;;;0.10;0.10;;;3.40;99.90;;;;;;5074204;28;20020;-71
2022/01/05 10:30:01;;;;;;;0.10;0.10;;;3.30;99.90;;;;;;5071933;28;20028;-71
2022/01/05 10:32:30;;;;;;;0.10;0.10;;;3.30;99.90;;;;;;5068860;28;20486;-73
2022/01/05 10:35:01;;;;;;;0.13;0.13;;;3.30;99.90;;;;;;5076184;28;20083;-73
2022/01/05 10:37:27;;;;;;;0.10;0.10;;;3.30;99.90;;;;;;5065006;28;20024;-75
2022/01/05 10:40:07;;;;;;;0.10;0.10;;;3.20;99.90;;;;;;5070533;28;20021;-73
2022/01/05 10:42:34;;;;;;;0.10;0.10;;;3.20;99.90;;;;;;5075675;28;20190;-75
2022/01/05 10:45:02;;;;;;;0.10;0.10;;;3.10;99.90;;;;;;5070914;28;20028;-69
2022/01/05 10:47:29;;;;;;;0.10;0.10;;;3.10;99.90;;;;;;5071690;28;20029;-77
2022/01/05 10:49:55;;;;;;;0.10;0.10;;;3.20;99.90;;;;;;5072303;28;20055;-71
2022/01/05 10:52:24;;;;;;;0.10;0.10;;;3.20;99.90;;;;;;5066717;28;20042;-71
2022/01/05 10:54:50;;;;;;;0.10;0.10;;;3.20;99.90;;;;;;5067517;28;20029;-71
2022/01/05 10:57:17;;;;;;;0.10;0.10;;;3.80;99.90;;;;;;5073944;28;20042;-75
2022/01/05 10:59:51;;;;;;;0.10;0.10;;;3.50;99.90;;;;;;5074383;28;20485;-75
2022/01/05 11:02:19;;;;;;;0.10;0.10;;;3.50;99.90;;;;;;5067083;28;20039;-74
2022/01/05 11:04:45;;;;;;;0.10;0.10;;;3.50;99.90;;;;;;5067208;28;20469;-73
2022/01/05 11:07:20;;;;;;;0.10;0.10;;;3.50;99.90;;;;;;5059787;28;20033;-71
2022/01/05 11:10:05;;;;;;;0.10;0.10;;;3.30;99.90;;;;;;5070214;28;20082;-70
2022/01/05 11:12:36;;;;;;;0.10;0.10;;;3.20;99.90;;;;;;5066368;28;20028;-70
2022/01/05 11:15:33;;;;;;;0.10;0.10;;;3.20;99.90;;;;;;5068969;28;20070;-89
2022/01/05 11:18:11;;;;;;;0.10;0.10;;;3.20;99.90;;;;;;5075244;28;20040;-73
2022/01/05 11:20:52;;;;;;;0.10;0.10;;;3.30;99.90;;;;;;5065918;28;20123;-70
2022/01/05 11:23:26;;;;;;;0.10;0.10;;;3.40;99.90;;;;;;5073304;28;20097;-70
2022/01/05 11:25:54;;;;;;;1.08;1.00;;;3.40;99.90;;;;;;5072953;28;20462;-70
2022/01/05 11:28:22;;;;;;;0.10;0.10;;;3.40;99.90;;;;;;5074594;28;20021;-69
2022/01/05 11:30:50;;;;;;;0.10;0.10;;;3.40;99.90;;;;;;5061324;28;20025;-70
2022/01/05 11:33:15;;;;;;;0.10;0.10;;;3.60;99.90;;;;;;5071179;28;20522;-70
2022/01/05 11:35:42;;;;;;;0.63;0.63;;;3.80;99.90;;;;;;5068221;28;20083;-70
2022/01/05 11:38:08;;;;;;;0.10;0.10;;;4.00;99.90;;;;;;5076708;28;20052;-70
2022/01/05 11:40:37;;;;;;;0.10;0.10;;;4.00;99.90;;;;;;5080304;28;20020;-70
2022/01/05 11:43:07;;;;;;;1.08;1.08;;;4.20;99.90;;;;;;5079788;28;20096;-71
2022/01/05 11:45:47;;;;;;;0.10;0.10;;;4.20;99.90;;;;;;5079675;28;20055;-70
2022/01/05 11:48:28;;;;;;;0.10;0.10;;;4.30;99.90;;;;;;5075914;28;20492;-70
2022/01/05 11:51:01;;;;;;;0.10;0.10;;;4.40;99.90;;;;;;5073336;28;20498;-70
2022/01/05 11:53:40;;;;;;;;;;;4.40;99.90;;;;;;5071728;28;20032;-69
2022/01/05 11:56:09;;;;;;;0.10;0.10;;;4.20;99.90;;;;;;5081346;28;19916;-69
2022/01/05 11:58:48;;;;;;;0.10;0.10;;;4.10;99.90;;;;;;5073671;28;20111;-69
2022/01/05 12:01:17;;;;;;;0.20;0.20;;;4.00;99.90;;;;;;5072257;28;20547;-69
2022/01/05 12:03:57;;;;;;;0.10;0.10;;;3.90;99.90;;;;;;5077225;28;20090;-70
2022/01/05 12:06:25;;;;;;;0.10;0.10;;;3.90;99.90;;;;;;5072728;28;20709;-70
2022/01/05 12:08:56;;;;;;;0.10;0.10;;;3.90;99.90;;;;;;5072752;28;20082;-70
2022/01/05 12:11:41;;;;;;;0.10;0.10;;;4.00;99.90;;;;;;5077570;28;20028;-70
2022/01/05 12:14:22;;;;;;;0.10;0.10;;;4.10;99.90;;;;;;5075891;28;20135;-69
2022/01/05 12:17:03;;;;;;;0.10;0.10;;;4.20;99.90;;;;;;5072353;28;20036;-73
2022/01/05 12:19:55;;;;;;;0.10;0.10;;;4.30;99.90;;;;;;5075952;28;20020;-70
2022/01/05 12:22:27;;;;;;;0.10;0.10;;;4.30;99.90;;;;;;5076649;28;20032;-70
2022/01/05 12:24:53;;;;;;;0.10;0.10;;;4.20;99.90;;;;;;5074278;28;20020;-69
2022/01/05 12:27:32;;;;;;;0.10;0.10;;;4.20;99.90;;;;;;5072440;28;20028;-70
2022/01/05 12:29:59;;;;;;;0.10;0.10;;;4.00;99.90;;;;;;5069457;28;20485;-70
2022/01/05 12:32:39;;;;;;;0.10;0.10;;;4.00;99.90;;;;;;5077492;28;20107;-70
2022/01/05 12:35:05;;;;;;;0.10;0.10;;;3.90;99.90;;;;;;5069881;28;20099;-70
2022/01/05 12:37:46;;;;;;;0.10;0.10;;;3.90;99.90;;;;;;5072375;28;20033;-70
2022/01/05 12:40:37;;;;;;;0.10;0.10;;;3.80;99.90;;;;;;5080626;28;20027;-70
2022/01/05 12:43:08;;;;;;;0.10;0.10;;;3.90;99.90;;;;;;5070107;28;20035;-70
2022/01/05 12:45:47;;;;;;;0.20;0.20;;;3.90;99.90;;;;;;5072620;28;20025;-70
2022/01/05 12:51:16;;;;;;;0.10;0.10;;;3.80;99.90;;;;;;5075077;28;20044;-72
2022/01/05 12:53:54;;;;;;;0.10;0.10;;;3.70;99.90;;;;;;5082886;28;20017;-71
2022/01/05 12:56:24;;;;;;;0.10;0.10;;;3.50;99.90;;;;;;5081395;28;20032;-70
2022/01/05 12:58:51;;;;;;;0.10;0.10;;;3.50;99.90;;;;;;5081021;28;20031;-71
2022/01/05 13:01:18;;;;;;;0.10;0.10;;;3.60;99.90;;;;;;5078907;28;20016;-69
2022/01/05 13:03:44;;;;;;;0.10;0.10;;;3.70;99.90;;;;;;5078998;28;20090;-70
2022/01/05 13:06:20;;;;;;;0.10;0.10;;;3.80;99.90;;;;;;5078505;28;20024;-70
2022/01/05 13:09:00;;;;;;;0.10;0.10;;;3.80;99.90;;;;;;5072505;28;20020;-70